Time;durP1;ratioP1;P1;durP2;ratioP2;P2;SDS_P1;SDS_P2;PMS_P1;PMS_P2;Temp;Humidity;BMP_temperature;BMP_pressure;BME280_temperature;BME280_humidity;BME280_pressure;Samples;Min_cycle;Max_cycle;Signal;HPM_P1;HPM_P2
2021/04/22 00:00:14;;;;;;;10.02;6.40;;;11.60;99.90;;;;;;4979179;28;20083;-48
2021/04/22 00:02:40;;;;;;;11.50;6.93;;;11.60;99.90;;;;;;4962902;28;20048;-48
2021/04/22 00:05:26;;;;;;;9.95;6.20;;;11.60;99.90;;;;;;4978958;28;20392;-48
2021/04/22 00:07:52;;;;;;;9.20;6.05;;;11.60;99.90;;;;;;5011634;28;20503;-48
2021/04/22 00:10:24;;;;;;;11.27;6.68;;;11.60;99.90;;;;;;4995147;28;20042;-48
2021/04/22 00:12:50;;;;;;;10.05;6.15;;;11.70;99.90;;;;;;5008994;28;20033;-48
2021/04/22 00:15:17;;;;;;;10.93;6.43;;;11.70;99.90;;;;;;4978748;28;20038;-48
2021/04/22 00:17:45;;;;;;;8.98;5.70;;;11.80;99.90;;;;;;4995332;28;20127;-48
2021/04/22 00:20:12;;;;;;;9.63;5.57;;;11.80;99.90;;;;;;5011659;28;20038;-48
2021/04/22 00:22:39;;;;;;;8.45;5.63;;;11.80;99.90;;;;;;4978212;28;20417;-48
2021/04/22 00:25:06;;;;;;;9.27;6.50;;;11.80;99.90;;;;;;5014535;28;20033;-48
2021/04/22 00:27:31;;;;;;;9.80;5.80;;;11.90;99.90;;;;;;4985624;28;20044;-47
2021/04/22 00:29:57;;;;;;;8.75;5.72;;;11.90;99.90;;;;;;5018013;28;20416;-49
2021/04/22 00:32:23;;;;;;;8.98;5.13;;;11.80;99.90;;;;;;5018090;28;20073;-49
2021/04/22 00:34:49;;;;;;;7.68;5.38;;;11.80;99.90;;;;;;5053432;28;20028;-48
2021/04/22 00:37:14;;;;;;;9.65;5.35;;;11.70;99.90;;;;;;5052977;28;20231;-48
2021/04/22 00:39:40;;;;;;;9.68;5.93;;;11.70;99.90;;;;;;5053360;28;20112;-48
2021/04/22 00:42:06;;;;;;;12.02;6.90;;;11.60;99.90;;;;;;4985300;28;20037;-48
2021/04/22 00:44:32;;;;;;;8.77;5.45;;;11.60;99.90;;;;;;5053366;28;20367;-49
2021/04/22 00:46:58;;;;;;;7.85;5.20;;;11.50;99.90;;;;;;5053065;28;20021;-48
2021/04/22 00:49:27;;;;;;;7.10;5.40;;;11.50;99.90;;;;;;5053153;28;20040;-48
2021/04/22 00:51:53;;;;;;;8.75;5.15;;;;;;;;;;5053465;28;20020;-48
2021/04/22 00:54:20;;;;;;;9.05;5.40;;;11.40;99.90;;;;;;5053119;28;20061;-48
2021/04/22 00:56:46;;;;;;;9.63;5.35;;;11.40;99.90;;;;;;5053094;28;20036;-48
2021/04/22 00:59:12;;;;;;;6.45;5.20;;;11.40;99.90;;;;;;5053213;28;20036;-48
2021/04/22 01:01:38;;;;;;;8.88;5.40;;;11.60;99.90;;;;;;5017617;28;20033;-48
2021/04/22 01:04:05;;;;;;;9.18;4.38;;;11.60;99.90;;;;;;5053033;28;20029;-48
2021/04/22 01:06:31;;;;;;;6.25;4.38;;;11.70;99.90;;;;;;5052893;28;20075;-49
2021/04/22 01:09:00;;;;;;;9.02;4.75;;;11.70;99.90;;;;;;5052748;28;20112;-48
2021/04/22 01:11:30;;;;;;;6.22;4.10;;;11.70;99.90;;;;;;5019096;28;20037;-48
2021/04/22 01:13:56;;;;;;;5.88;4.05;;;11.90;99.90;;;;;;5052704;28;20036;-47
2021/04/22 01:16:21;;;;;;;7.05;4.07;;;12.00;99.90;;;;;;5052424;28;20021;-49
2021/04/22 01:18:47;;;;;;;5.63;3.53;;;12.00;99.90;;;;;;4968689;28;20029;-48
2021/04/22 01:21:26;;;;;;;6.07;3.53;;;12.00;99.90;;;;;;5034263;28;20124;-48
2021/04/22 01:23:53;;;;;;;7.43;3.88;;;12.10;99.90;;;;;;5052545;28;20028;-47
2021/04/22 01:26:22;;;;;;;7.13;3.90;;;12.20;99.90;;;;;;5052740;28;20025;-48
2021/04/22 01:28:48;;;;;;;4.95;3.03;;;12.20;99.90;;;;;;5052542;28;20065;-49
2021/04/22 01:31:14;;;;;;;7.93;3.72;;;12.20;99.90;;;;;;5052875;28;20029;-49
2021/04/22 01:33:41;;;;;;;7.60;4.07;;;12.30;99.90;;;;;;5052841;28;20100;-48
2021/04/22 01:36:08;;;;;;;6.03;4.03;;;12.30;99.90;;;;;;5052559;28;20031;-48
2021/04/22 01:38:35;;;;;;;14.27;4.68;;;12.30;99.90;;;;;;5052402;28;20044;-48
2021/04/22 01:41:03;;;;;;;6.82;3.80;;;12.30;99.90;;;;;;5052817;28;20727;-48
2021/04/22 01:43:30;;;;;;;9.77;4.40;;;12.30;99.90;;;;;;5017441;28;20068;-48
2021/04/22 01:45:56;;;;;;;6.32;4.03;;;12.30;99.90;;;;;;5049453;28;20053;-47
2021/04/22 01:48:23;;;;;;;6.40;4.15;;;12.30;99.90;;;;;;5054700;28;20048;-48
2021/04/22 01:50:49;;;;;;;7.00;4.70;;;12.30;99.90;;;;;;5056244;28;20103;-48
2021/04/22 01:53:15;;;;;;;7.60;4.45;;;12.30;99.90;;;;;;5037143;28;20120;-48
2021/04/22 01:55:44;;;;;;;8.73;3.97;;;12.10;99.90;;;;;;5056401;28;20059;-48
2021/04/22 01:58:13;;;;;;;10.38;4.65;;;12.20;99.90;;;;;;5056126;28;20025;-48
2021/04/22 02:00:45;;;;;;;6.30;4.55;;;12.20;99.90;;;;;;5055888;28;20396;-48
2021/04/22 02:03:12;;;;;;;8.32;4.65;;;12.20;99.90;;;;;;5020854;28;20036;-48
2021/04/22 02:05:39;;;;;;;7.93;4.22;;;12.20;99.90;;;;;;5055996;28;20025;-48
2021/04/22 02:08:06;;;;;;;7.30;4.95;;;12.20;99.90;;;;;;5055554;28;20090;-49
2021/04/22 02:10:32;;;;;;;7.20;4.75;;;12.30;99.90;;;;;;5020989;28;20120;-48
2021/04/22 02:12:58;;;;;;;8.63;5.00;;;12.30;99.90;;;;;;5055561;28;20122;-48
2021/04/22 02:15:27;;;;;;;19.52;9.32;;;12.30;99.90;;;;;;5055740;28;20055;-48
2021/04/22 02:17:53;;;;;;;11.15;6.43;;;11.90;99.90;;;;;;5020635;28;20404;-48
2021/04/22 02:20:19;;;;;;;16.35;8.18;;;11.50;99.90;;;;;;5020564;28;20143;-48
2021/04/22 02:22:46;;;;;;;11.30;7.00;;;11.40;99.90;;;;;;5055633;28;20353;-48
2021/04/22 02:25:15;;;;;;;11.98;6.72;;;11.30;99.90;;;;;;5055857;28;20498;-48
2021/04/22 02:27:41;;;;;;;12.75;6.82;;;11.30;99.90;;;;;;5055533;28;20025;-48
2021/04/22 02:30:12;;;;;;;13.07;6.60;;;11.30;99.90;;;;;;5055467;28;20059;-47
2021/04/22 02:32:39;;;;;;;14.60;6.80;;;11.40;99.90;;;;;;5055550;28;20037;-47
2021/04/22 02:35:07;;;;;;;12.52;7.03;;;11.50;99.90;;;;;;5055668;28;20032;-49
2021/04/22 02:37:33;;;;;;;12.27;6.30;;;11.50;99.90;;;;;;5019975;28;20049;-48
2021/04/22 02:40:00;;;;;;;15.70;6.88;;;11.60;99.90;;;;;;5036802;28;20033;-49
2021/04/22 02:42:25;;;;;;;12.68;6.50;;;11.60;99.90;;;;;;5055029;28;20075;-48
2021/04/22 02:44:51;;;;;;;12.88;6.25;;;11.60;99.90;;;;;;5055366;28;20025;-48
2021/04/22 02:47:17;;;;;;;10.77;6.63;;;11.40;99.90;;;;;;5055210;28;20065;-48
2021/04/22 02:49:43;;;;;;;13.10;6.32;;;11.30;99.90;;;;;;5055270;28;20075;-48
2021/04/22 02:52:09;;;;;;;9.50;6.07;;;;;;;;;;5054937;28;20040;-49
2021/04/22 02:54:35;;;;;;;7.75;5.43;;;11.10;99.90;;;;;;5020120;28;20051;-48
2021/04/22 02:57:01;;;;;;;10.38;5.57;;;11.10;99.90;;;;;;5055103;28;20112;-48
2021/04/22 02:59:27;;;;;;;12.13;6.15;;;11.10;99.90;;;;;;5054466;28;20112;-49
2021/04/22 03:01:53;;;;;;;8.40;5.05;;;11.10;99.90;;;;;;5036212;28;20037;-48
2021/04/22 03:04:18;;;;;;;8.30;4.63;;;11.10;99.90;;;;;;5055161;28;20498;-48
2021/04/22 03:06:44;;;;;;;16.27;7.80;;;11.20;99.90;;;;;;5055022;28;20021;-48
2021/04/22 03:09:10;;;;;;;10.95;6.22;;;11.20;99.90;;;;;;5054752;28;20510;-49
2021/04/22 03:11:35;;;;;;;9.45;6.43;;;11.10;99.90;;;;;;4986820;28;20091;-48
2021/04/22 03:14:02;;;;;;;10.05;5.35;;;10.90;99.90;;;;;;5054719;28;20021;-48
2021/04/22 03:16:28;;;;;;;7.82;4.45;;;;;;;;;;5054781;28;20471;-47
2021/04/22 03:18:54;;;;;;;7.47;4.55;;;10.70;99.90;;;;;;5054478;28;20491;-49
2021/04/22 03:21:20;;;;;;;7.30;3.75;;;;;;;;;;5054531;28;20025;-48
2021/04/22 03:23:46;;;;;;;8.65;5.10;;;10.20;99.90;;;;;;5054617;28;20452;-48
2021/04/22 03:26:11;;;;;;;8.02;4.60;;;10.30;99.90;;;;;;5055046;28;20031;-48
2021/04/22 03:28:37;;;;;;;9.27;4.32;;;10.10;99.90;;;;;;5054542;28;20036;-49
2021/04/22 03:31:03;;;;;;;5.65;4.00;;;10.30;99.90;;;;;;5035770;28;20037;-48
2021/04/22 03:33:29;;;;;;;6.95;3.92;;;10.40;99.90;;;;;;5002538;28;20060;-49
2021/04/22 03:35:54;;;;;;;5.70;4.10;;;10.50;99.90;;;;;;5035633;28;20033;-48
2021/04/22 03:38:20;;;;;;;12.57;5.97;;;10.60;99.90;;;;;;5054313;28;20059;-48
2021/04/22 03:40:46;;;;;;;11.95;6.72;;;;;;;;;;5054565;28;20425;-48
2021/04/22 03:43:12;;;;;;;13.38;6.25;;;;;;;;;;5053828;28;20036;-48
2021/04/22 03:45:38;;;;;;;12.43;6.25;;;;;;;;;;5054245;28;20449;-48
2021/04/22 03:48:05;;;;;;;9.90;6.80;;;;;;;;;;5054047;28;20033;-49
2021/04/22 03:50:30;;;;;;;7.35;4.65;;;10.50;99.90;;;;;;5018784;28;20039;-48
2021/04/22 03:52:56;;;;;;;5.75;4.00;;;10.30;99.90;;;;;;5054132;28;20056;-49
2021/04/22 03:55:23;;;;;;;5.55;3.85;;;10.20;99.90;;;;;;5019033;28;20040;-48
2021/04/22 03:57:49;;;;;;;5.47;3.45;;;9.80;99.90;;;;;;5054167;28;20369;-48
2021/04/22 04:00:17;;;;;;;6.18;3.92;;;9.80;99.90;;;;;;5011949;28;20045;-48
2021/04/22 04:02:43;;;;;;;5.68;3.40;;;9.60;99.90;;;;;;4972513;28;20109;-48
2021/04/22 04:05:09;;;;;;;4.65;3.35;;;9.50;99.90;;;;;;4940575;28;20073;-48
2021/04/22 04:07:35;;;;;;;7.68;3.75;;;9.60;99.90;;;;;;4940717;28;20066;-48
2021/04/22 04:10:01;;;;;;;5.15;3.05;;;9.70;99.90;;;;;;4972048;28;20047;-49
2021/04/22 04:12:27;;;;;;;5.45;3.13;;;9.50;99.90;;;;;;4952964;29;20051;-48
2021/04/22 04:14:54;;;;;;;4.80;3.10;;;9.50;99.90;;;;;;4953548;29;20038;-48
2021/04/22 04:17:20;;;;;;;8.05;3.92;;;9.70;99.90;;;;;;4953412;29;20032;-48
2021/04/22 04:19:46;;;;;;;6.75;3.80;;;10.00;99.90;;;;;;4921111;29;20031;-48
2021/04/22 04:22:12;;;;;;;4.57;3.10;;;10.40;99.90;;;;;;4953357;29;20074;-48
2021/04/22 04:24:38;;;;;;;10.45;3.85;;;10.70;99.90;;;;;;4953301;29;20547;-48
2021/04/22 04:27:04;;;;;;;6.07;3.95;;;10.80;99.90;;;;;;4953218;29;20122;-48
2021/04/22 04:29:30;;;;;;;7.78;4.78;;;;;;;;;;4937179;29;20051;-48
2021/04/22 04:31:55;;;;;;;14.60;4.72;;;11.40;99.90;;;;;;4983675;28;20486;-47
2021/04/22 04:34:21;;;;;;;15.98;5.43;;;11.40;99.90;;;;;;5006739;28;20049;-48
2021/04/22 04:36:47;;;;;;;6.25;3.25;;;11.70;99.90;;;;;;4978635;28;20053;-49
2021/04/22 04:39:15;;;;;;;10.05;4.10;;;11.70;99.90;;;;;;5011563;28;20034;-48
2021/04/22 04:41:43;;;;;;;9.77;3.80;;;11.80;99.90;;;;;;4978440;28;20062;-48
2021/04/22 04:44:10;;;;;;;6.47;3.97;;;11.80;99.90;;;;;;5028946;28;20841;-48
2021/04/22 04:46:36;;;;;;;6.82;3.80;;;11.60;99.90;;;;;;5033507;28;20087;-48
2021/04/22 04:49:03;;;;;;;6.15;4.05;;;11.80;99.90;;;;;;5032971;28;20037;-47
2021/04/22 04:51:29;;;;;;;8.77;4.60;;;11.90;99.90;;;;;;5033627;28;20112;-48
2021/04/22 04:53:55;;;;;;;9.38;4.20;;;12.10;99.90;;;;;;5033393;28;20168;-48
2021/04/22 04:56:21;;;;;;;13.95;5.45;;;12.30;99.90;;;;;;5033060;28;20037;-48
2021/04/22 04:58:48;;;;;;;11.40;5.53;;;12.40;99.90;;;;;;4982144;28;20032;-48
2021/04/22 05:01:14;;;;;;;11.02;5.32;;;12.50;99.90;;;;;;4959044;28;20124;-49
2021/04/22 05:03:40;;;;;;;5.00;3.55;;;12.50;99.90;;;;;;4942579;28;20501;-47
2021/04/22 05:06:06;;;;;;;6.00;3.58;;;12.50;99.90;;;;;;4943091;28;20125;-49
2021/04/22 05:08:33;;;;;;;6.82;4.20;;;11.90;99.90;;;;;;4959085;28;20120;-47
2021/04/22 05:10:59;;;;;;;6.93;4.40;;;11.20;99.90;;;;;;4991289;28;20039;-50
2021/04/22 05:13:26;;;;;;;8.25;5.03;;;;;;;;;;4958838;28;20034;-48
2021/04/22 05:15:52;;;;;;;7.68;5.43;;;;;;;;;;4991671;28;20117;-48
2021/04/22 05:18:17;;;;;;;10.32;5.22;;;11.00;99.90;;;;;;4991471;28;20059;-50
2021/04/22 05:20:43;;;;;;;9.02;4.97;;;11.10;99.90;;;;;;4991308;28;20672;-48
2021/04/22 05:23:09;;;;;;;7.15;4.35;;;11.30;99.90;;;;;;4994956;28;20105;-48
2021/04/22 05:25:35;;;;;;;5.40;3.30;;;11.60;99.90;;;;;;4995300;28;20062;-47
2021/04/22 05:28:00;;;;;;;5.82;3.28;;;11.90;99.90;;;;;;4994982;28;20042;-48
2021/04/22 05:30:26;;;;;;;5.28;3.40;;;12.00;99.90;;;;;;4978813;28;20034;-48
2021/04/22 05:32:53;;;;;;;6.05;3.35;;;12.40;99.90;;;;;;5013597;28;20088;-48
2021/04/22 05:35:19;;;;;;;6.32;3.38;;;12.70;99.90;;;;;;5036560;28;20032;-48
2021/04/22 05:37:45;;;;;;;5.15;3.40;;;13.00;99.90;;;;;;5047159;28;20392;-48
2021/04/22 05:40:11;;;;;;;4.82;3.42;;;13.20;99.90;;;;;;5056581;28;20033;-47
2021/04/22 05:42:37;;;;;;;5.72;3.38;;;13.30;99.90;;;;;;5055988;28;20116;-48
2021/04/22 05:45:04;;;;;;;6.30;3.22;;;13.30;99.90;;;;;;5055126;28;20116;-48
2021/04/22 05:47:29;;;;;;;7.32;3.17;;;13.40;99.90;;;;;;4993985;28;20042;-48
2021/04/22 05:49:55;;;;;;;4.10;3.10;;;13.40;99.90;;;;;;5044650;28;20067;-48
2021/04/22 05:52:21;;;;;;;3.65;2.80;;;13.60;99.90;;;;;;5047628;28;20075;-49
2021/04/22 05:54:47;;;;;;;4.47;2.33;;;13.90;99.90;;;;;;5051849;28;20032;-48
2021/04/22 05:57:13;;;;;;;3.92;2.92;;;;;;;;;;5043748;28;20040;-47
2021/04/22 05:59:39;;;;;;;5.30;3.30;;;14.10;99.90;;;;;;5036273;28;20038;-48
2021/04/22 06:02:05;;;;;;;5.95;3.70;;;;;;;;;;5001121;28;20050;-47
2021/04/22 06:04:31;;;;;;;5.85;3.30;;;14.50;99.90;;;;;;5001378;28;20389;-49
2021/04/22 06:06:56;;;;;;;6.30;4.07;;;14.60;99.90;;;;;;5036153;28;20037;-48
2021/04/22 06:09:22;;;;;;;4.80;3.17;;;14.60;99.90;;;;;;5035911;28;20546;-48
2021/04/22 06:11:48;;;;;;;5.90;3.95;;;14.70;99.90;;;;;;5043154;28;20021;-48
2021/04/22 06:14:14;;;;;;;5.80;3.47;;;14.60;99.90;;;;;;5036105;28;20047;-48
2021/04/22 06:16:40;;;;;;;9.25;3.50;;;;;;;;;;5036032;28;20116;-48
2021/04/22 06:19:06;;;;;;;5.10;3.30;;;15.20;99.90;;;;;;5035650;28;20029;-48
2021/04/22 06:21:32;;;;;;;9.23;3.97;;;15.50;99.90;;;;;;5035707;28;20045;-48
2021/04/22 06:23:58;;;;;;;6.85;4.10;;;15.80;99.90;;;;;;5035843;28;20036;-49
2021/04/22 06:26:24;;;;;;;5.05;3.40;;;;;;;;;;5035821;28;20038;-47
2021/04/22 06:28:50;;;;;;;8.82;5.30;;;16.20;99.90;;;;;;5017033;28;20132;-46
2021/04/22 06:31:17;;;;;;;9.20;4.90;;;;;;;;;;5002656;28;20037;-46
2021/04/22 06:33:43;;;;;;;8.10;3.85;;;;;;;;;;5042341;28;20029;-45
2021/04/22 06:36:09;;;;;;;7.05;4.22;;;16.70;99.90;;;;;;5045453;28;20446;-46
2021/04/22 06:38:34;;;;;;;7.78;4.78;;;16.90;99.90;;;;;;5027396;28;20069;-46
2021/04/22 06:41:00;;;;;;;10.27;5.65;;;16.90;99.90;;;;;;5049179;28;20468;-47
2021/04/22 06:43:26;;;;;;;7.10;4.25;;;;;;;;;;5055408;28;20029;-46
2021/04/22 06:45:52;;;;;;;8.57;5.15;;;17.00;99.90;;;;;;5055597;28;20029;-46
2021/04/22 06:48:18;;;;;;;7.47;5.53;;;17.20;99.90;;;;;;5054935;28;20033;-46
2021/04/22 06:50:45;;;;;;;8.52;5.55;;;17.40;99.90;;;;;;5055100;28;20079;-45
2021/04/22 06:53:11;;;;;;;7.68;5.05;;;;;;;;;;5036284;28;20036;-46
2021/04/22 06:55:38;;;;;;;15.65;7.95;;;17.60;99.90;;;;;;5054915;28;20032;-47
2021/04/22 06:58:06;;;;;;;9.10;4.78;;;17.70;99.90;;;;;;5055117;28;20044;-47
2021/04/22 07:00:39;;;;;;;7.63;4.00;;;17.60;99.90;;;;;;5055275;28;20025;-46
2021/04/22 07:03:06;;;;;;;6.65;4.10;;;17.60;99.90;;;;;;5035896;28;20069;-45
2021/04/22 07:05:32;;;;;;;7.38;4.13;;;;;;;;;;5055148;28;20039;-46
2021/04/22 07:07:58;;;;;;;13.55;5.05;;;17.90;99.90;;;;;;5054980;28;20025;-46
2021/04/22 07:10:24;;;;;;;4.93;2.33;;;18.20;99.90;;;;;;5019308;28;20413;-46
2021/04/22 07:12:50;;;;;;;4.03;2.45;;;18.30;99.90;;;;;;5054771;28;20040;-46
2021/04/22 07:15:17;;;;;;;3.08;1.90;;;;;;;;;;5054664;28;20498;-46
2021/04/22 07:17:43;;;;;;;3.70;2.25;;;18.40;99.90;;;;;;5054653;28;20028;-46
2021/04/22 07:20:22;;;;;;;2.35;1.60;;;18.50;99.90;;;;;;5036077;28;20111;-46
2021/04/22 07:22:48;;;;;;;2.55;1.52;;;18.10;99.10;;;;;;5023118;28;20045;-45
2021/04/22 07:25:15;;;;;;;2.95;1.60;;;18.40;98.90;;;;;;5054443;28;20025;-46
2021/04/22 07:27:42;;;;;;;3.45;1.90;;;18.70;98.20;;;;;;4986625;28;20045;-46
2021/04/22 07:30:10;;;;;;;6.05;2.08;;;18.90;97.60;;;;;;5035623;28;20128;-46
2021/04/22 07:32:37;;;;;;;3.80;2.00;;;19.00;97.20;;;;;;5054010;28;20067;-46
2021/04/22 07:35:03;;;;;;;3.55;2.25;;;18.90;99.90;;;;;;5054688;28;20104;-45
2021/04/22 07:37:29;;;;;;;4.88;2.38;;;18.70;99.90;;;;;;4995587;28;20042;-46
2021/04/22 07:39:55;;;;;;;3.80;2.47;;;18.50;99.90;;;;;;4995409;28;20064;-45
2021/04/22 07:42:21;;;;;;;2.72;1.48;;;18.60;99.90;;;;;;5011903;28;20061;-46
2021/04/22 07:44:48;;;;;;;2.58;1.33;;;18.50;94.30;;;;;;4994925;28;20042;-46
2021/04/22 07:47:15;;;;;;;2.33;1.27;;;18.80;92.00;;;;;;5011956;28;20045;-44
2021/04/22 07:49:42;;;;;;;1.67;1.00;;;18.80;88.70;;;;;;5012116;28;20053;-47
2021/04/22 07:52:09;;;;;;;3.15;1.13;;;18.70;89.20;;;;;;4995468;28;20046;-48
2021/04/22 07:54:35;;;;;;;1.02;0.95;;;18.80;86.40;;;;;;4995409;28;20050;-47
2021/04/22 07:57:00;;;;;;;0.60;0.60;;;18.70;86.00;;;;;;5011409;28;20038;-49
2021/04/22 07:59:26;;;;;;;1.35;0.98;;;18.70;82.50;;;;;;5012149;28;20539;-49
2021/04/22 08:01:52;;;;;;;0.85;0.75;;;18.80;87.00;;;;;;5011646;28;20034;-47
2021/04/22 08:04:18;;;;;;;0.68;0.68;;;18.80;87.70;;;;;;5012055;28;20045;-49
2021/04/22 08:06:43;;;;;;;2.97;1.10;;;18.90;82.00;;;;;;5012006;28;20676;-47
2021/04/22 08:09:09;;;;;;;0.85;0.70;;;19.00;79.00;;;;;;5026057;28;20384;-48
2021/04/22 08:11:35;;;;;;;1.75;0.98;;;19.10;80.70;;;;;;5053741;28;20353;-47
2021/04/22 08:14:02;;;;;;;1.58;0.70;;;19.20;79.50;;;;;;5018619;28;20135;-48
2021/04/22 08:16:28;;;;;;;0.63;0.60;;;;;;;;;;5053128;28;20037;-49
2021/04/22 08:18:55;;;;;;;1.13;0.80;;;19.50;75.90;;;;;;5001840;28;20049;-49
2021/04/22 08:21:23;;;;;;;1.13;0.93;;;19.60;76.00;;;;;;5053579;28;20045;-48
2021/04/22 08:23:49;;;;;;;1.02;0.80;;;19.70;75.00;;;;;;5053427;28;20100;-49
2021/04/22 08:26:18;;;;;;;0.70;0.68;;;19.60;75.70;;;;;;5053563;28;20033;-49
2021/04/22 08:28:45;;;;;;;1.17;0.70;;;19.60;76.00;;;;;;5053582;28;20130;-48
2021/04/22 08:31:21;;;;;;;1.33;0.75;;;19.40;73.80;;;;;;5053243;28;20036;-47
2021/04/22 08:33:47;;;;;;;1.23;0.93;;;19.30;78.30;;;;;;5053509;28;20124;-48
2021/04/22 08:36:13;;;;;;;0.73;0.70;;;19.40;76.70;;;;;;5018259;28;20399;-48
2021/04/22 08:38:39;;;;;;;1.05;0.68;;;19.50;72.30;;;;;;5053155;28;20048;-48
2021/04/22 08:41:06;;;;;;;1.75;0.90;;;19.60;71.80;;;;;;5053864;28;20459;-47
2021/04/22 08:43:32;;;;;;;0.77;0.75;;;19.90;95.60;;;;;;5018672;28;20098;-47
2021/04/22 08:45:58;;;;;;;0.50;0.47;;;20.10;95.40;;;;;;5018098;28;20037;-48
2021/04/22 08:48:26;;;;;;;0.52;0.52;;;19.90;96.30;;;;;;5052307;28;20043;-52
2021/04/22 08:50:53;;;;;;;3.38;0.93;;;19.90;94.30;;;;;;5052943;28;20041;-53
2021/04/22 08:53:21;;;;;;;1.10;0.63;;;;;;;;;;5053028;28;20095;-50
2021/04/22 08:55:48;;;;;;;0.75;0.70;;;;;;;;;;5053293;28;20069;-47
2021/04/22 08:58:14;;;;;;;1.02;0.82;;;19.70;76.90;;;;;;5057113;28;20044;-49
2021/04/22 09:00:51;;;;;;;0.65;0.65;;;;;;;;;;5021747;28;20040;-49
2021/04/22 09:03:18;;;;;;;1.55;0.93;;;;;;;;;;5014357;28;20046;-49
2021/04/22 09:05:44;;;;;;;1.70;1.00;;;;;;;;;;5056415;28;20036;-49
2021/04/22 09:08:11;;;;;;;0.73;0.73;;;;;;;;;;5057115;28;20033;-53
2021/04/22 09:10:37;;;;;;;1.27;0.73;;;20.30;72.40;;;;;;5056702;28;20037;-48
2021/04/22 09:13:08;;;;;;;0.70;0.65;;;;;;;;;;5021787;28;20390;-48
2021/04/22 09:15:37;;;;;;;1.50;0.93;;;20.80;70.20;;;;;;5021422;28;20049;-49
2021/04/22 09:18:06;;;;;;;0.47;0.47;;;21.10;66.90;;;;;;5057381;28;20036;-48
2021/04/22 09:20:35;;;;;;;0.68;0.63;;;;;;;;;;5021677;28;20102;-47
2021/04/22 09:23:11;;;;;;;1.50;1.00;;;21.30;67.10;;;;;;5053526;28;20041;-50
2021/04/22 09:25:37;;;;;;;1.20;0.90;;;21.40;68.70;;;;;;5056575;28;20025;-50
2021/04/22 09:28:05;;;;;;;1.15;0.80;;;21.50;66.60;;;;;;5057193;28;20477;-51
2021/04/22 09:30:41;;;;;;;4.05;0.95;;;21.50;64.80;;;;;;5056374;28;20037;-51
2021/04/22 09:33:07;;;;;;;1.63;0.93;;;21.70;67.80;;;;;;5056806;28;20059;-49
2021/04/22 09:35:34;;;;;;;0.88;0.70;;;21.60;64.50;;;;;;5056528;28;20041;-48
2021/04/22 09:38:00;;;;;;;1.77;1.00;;;21.80;63.90;;;;;;5020880;28;20044;-49
2021/04/22 09:40:35;;;;;;;1.13;1.00;;;21.90;66.20;;;;;;5021275;28;20037;-48
2021/04/22 09:43:06;;;;;;;0.90;0.80;;;21.80;64.00;;;;;;5056623;28;20411;-49
2021/04/22 09:45:34;;;;;;;1.85;1.40;;;22.60;64.20;;;;;;5056188;28;20086;-49
2021/04/22 09:48:00;;;;;;;0.80;0.80;;;22.90;61.30;;;;;;5038121;28;20390;-47
2021/04/22 09:50:28;;;;;;;2.88;1.00;;;;;;;;;;5021221;28;20056;-48
2021/04/22 09:52:57;;;;;;;2.05;0.95;;;23.40;64.70;;;;;;5056075;28;20085;-48
2021/04/22 09:55:31;;;;;;;3.22;1.00;;;;;;;;;;5056366;28;20477;-47
2021/04/22 09:57:57;;;;;;;1.20;0.88;;;24.00;62.80;;;;;;5056708;28;20167;-47
2021/04/22 10:00:28;;;;;;;1.77;1.10;;;23.90;62.10;;;;;;5020835;28;20040;-49
2021/04/22 10:03:00;;;;;;;0.93;0.88;;;23.70;62.40;;;;;;5056130;28;20045;-47
2021/04/22 10:05:29;;;;;;;1.58;0.90;;;23.60;60.40;;;;;;5056177;28;20486;-49
2021/04/22 10:08:14;;;;;;;0.90;0.73;;;24.10;60.00;;;;;;5051506;28;20036;-48
2021/04/22 10:10:55;;;;;;;2.30;1.02;;;23.90;59.70;;;;;;5056075;28;20045;-49
2021/04/22 10:13:20;;;;;;;0.93;0.80;;;24.40;63.10;;;;;;5055947;28;20150;-49
2021/04/22 10:15:52;;;;;;;2.22;1.00;;;23.90;60.00;;;;;;5055649;28;20802;-49
2021/04/22 10:18:18;;;;;;;;;;;23.60;59.70;;;;;;5056693;28;20025;-49
2021/04/22 10:20:44;;;;;;;;;;;23.40;61.80;;;;;;5056305;28;19919;-47
2021/04/22 10:23:10;;;;;;;;;;;;;;;;;;5055799;28;19909;-48
2021/04/22 10:25:36;;;;;;;;;;;22.80;60.50;;;;;;5037800;28;19916;-49
2021/04/22 10:28:03;;;;;;;;;;;22.40;60.40;;;;;;4994530;28;19910;-48
2021/04/22 10:30:29;;;;;;;;;;;22.20;61.00;;;;;;4994312;28;19917;-49
2021/04/22 10:32:55;;;;;;;;;;;22.30;59.50;;;;;;4994571;28;20427;-50
2021/04/22 10:35:23;;;;;;;;;;;22.40;62.30;;;;;;4994447;28;19910;-50
2021/04/22 10:37:50;;;;;;;;;;;22.40;60.00;;;;;;4993664;28;19970;-50
2021/04/22 10:40:17;;;;;;;;;;;22.10;63.00;;;;;;4994362;28;19909;-49
2021/04/22 10:42:43;;;;;;;;;;;22.00;61.30;;;;;;4994229;28;19944;-50
2021/04/22 10:45:10;;;;;;;;;;;21.90;61.60;;;;;;4994206;28;19910;-47
2021/04/22 10:47:36;;;;;;;;;;;22.20;64.30;;;;;;4994221;28;19909;-46
2021/04/22 10:50:03;;;;;;;;;;;22.60;63.60;;;;;;4994148;28;19917;-49
2021/04/22 10:52:29;;;;;;;;;;;23.00;62.50;;;;;;4954990;29;19910;-48
2021/04/22 10:54:54;;;;;;;;;;;23.30;63.10;;;;;;4955537;29;19915;-48
2021/04/22 10:57:21;;;;;;;;;;;23.60;58.40;;;;;;4955281;29;19910;-49
2021/04/22 10:59:48;;;;;;;;;;;23.10;59.90;;;;;;4983998;28;19952;-47
2021/04/22 11:02:18;;;;;;;;;;;23.20;60.40;;;;;;4993250;28;19914;-49
2021/04/22 11:04:45;;;;;;;;;;;23.10;61.80;;;;;;4993915;28;19914;-49
2021/04/22 11:07:28;;;;;;;;;;;22.70;60.70;;;;;;4954713;28;19916;-49
2021/04/22 11:10:00;;;;;;;;;;;22.80;63.70;;;;;;4955108;29;19923;-51
2021/04/22 11:12:29;;;;;;;;;;;22.70;59.50;;;;;;4954875;29;19918;-53
2021/04/22 11:14:56;;;;;;;;;;;22.70;59.50;;;;;;4954722;29;20041;-52
2021/04/22 11:17:38;;;;;;;;;;;22.30;60.00;;;;;;4954997;29;19910;-51
2021/04/22 11:20:12;;;;;;;;;;;22.90;60.00;;;;;;4954795;28;19910;-49
2021/04/22 11:22:38;;;;;;;;;;;23.30;61.40;;;;;;4963449;28;20331;-51
2021/04/22 11:25:05;;;;;;;;;;;24.00;62.20;;;;;;5013263;28;19909;-54
2021/04/22 11:27:32;;;;;;;;;;;24.50;58.30;;;;;;4980326;28;19925;-47
2021/04/22 11:29:58;;;;;;;;;;;;;;;;;;5012728;28;19918;-52
2021/04/22 11:32:30;;;;;;;;;;;25.20;56.50;;;;;;4996805;28;19917;-52
2021/04/22 11:35:10;;;;;;;;;;;25.60;56.50;;;;;;4996917;28;19910;-50
2021/04/22 11:37:40;;;;;;;;;;;25.80;79.90;;;;;;4985330;28;20365;-53
2021/04/22 11:40:15;;;;;;;;;;;25.30;57.00;;;;;;5035120;28;20007;-49
2021/04/22 11:42:42;;;;;;;;;;;25.50;55.60;;;;;;5034733;28;19974;-52
2021/04/22 11:45:08;;;;;;;;;;;25.50;54.70;;;;;;5034732;28;19909;-53
2021/04/22 11:47:35;;;;;;;;;;;25.30;54.40;;;;;;5034753;28;19909;-49
2021/04/22 11:50:03;;;;;;;;;;;25.00;55.00;;;;;;5034506;28;19916;-51
2021/04/22 11:52:39;;;;;;;;;;;25.10;54.30;;;;;;5034707;28;19909;-53
2021/04/22 11:55:11;;;;;;;;;;;25.20;55.10;;;;;;5034882;28;19919;-50
2021/04/22 11:57:47;;;;;;;;;;;25.00;54.30;;;;;;5034795;28;19909;-48
2021/04/22 12:00:13;;;;;;;;;;;25.00;54.40;;;;;;5033973;28;19963;-52
2021/04/22 12:02:38;;;;;;;;;;;24.70;56.10;;;;;;5015799;28;19913;-50
2021/04/22 12:05:04;;;;;;;;;;;24.60;53.50;;;;;;5034753;28;19909;-51
2021/04/22 12:07:31;;;;;;;;;;;24.50;53.70;;;;;;5015850;28;20323;-52
2021/04/22 12:09:58;;;;;;;;;;;24.80;55.80;;;;;;5034296;28;20284;-49
2021/04/22 12:12:25;;;;;;;;;;;24.20;53.90;;;;;;5013736;28;19916;-48
2021/04/22 12:14:52;;;;;;;;;;;24.80;55.20;;;;;;5030384;28;21584;-48
2021/04/22 12:17:22;;;;;;;;;;;24.80;53.40;;;;;;4995062;28;19909;-48
2021/04/22 12:19:48;;;;;;;;;;;;;;;;;;5018850;28;19909;-50
2021/04/22 12:22:24;;;;;;;;;;;25.50;55.20;;;;;;5014302;28;19916;-47
2021/04/22 12:24:50;;;;;;;;;;;25.20;53.60;;;;;;5014530;28;19909;-47
2021/04/22 12:27:24;;;;;;;;;;;24.90;55.50;;;;;;4979930;28;19920;-48
2021/04/22 12:29:50;;;;;;;;;;;25.10;53.80;;;;;;5013921;28;19921;-47
2021/04/22 12:32:15;;;;;;;;;;;24.40;54.20;;;;;;5013749;28;19920;-47
2021/04/22 12:34:41;;;;;;;;;;;24.20;54.70;;;;;;5014451;28;19910;-47
2021/04/22 12:37:08;;;;;;;;;;;24.00;57.80;;;;;;5019617;28;20282;-48
2021/04/22 12:39:35;;;;;;;;;;;24.10;54.60;;;;;;5050750;28;20176;-47
2021/04/22 12:42:05;;;;;;;;;;;24.40;55.20;;;;;;5035127;28;19947;-47
2021/04/22 12:44:31;;;;;;;;;;;24.80;55.90;;;;;;4959605;28;19910;-48
2021/04/22 12:47:06;;;;;;;;;;;25.20;55.20;;;;;;4992324;28;19910;-47
2021/04/22 12:49:32;;;;;;;;;;;25.30;52.20;;;;;;4992463;28;20352;-48
2021/04/22 12:51:58;;;;;;;;;;;25.70;52.70;;;;;;4959400;28;19910;-48
2021/04/22 12:54:25;;;;;;;;;;;25.50;53.50;;;;;;4992489;28;19918;-47
2021/04/22 12:56:51;;;;;;;;;;;25.40;53.20;;;;;;4992263;28;20000;-48
2021/04/22 12:59:17;;;;;;;;;;;;;;;;;;4992078;28;20000;-48
2021/04/22 13:01:42;;;;;;;;;;;26.10;53.80;;;;;;4992007;28;20296;-47
2021/04/22 13:04:11;;;;;;;;;;;26.30;53.10;;;;;;4992245;28;19993;-47
2021/04/22 13:06:39;;;;;;;;;;;25.70;53.90;;;;;;4991962;28;20057;-48
2021/04/22 13:09:06;;;;;;;;;;;25.70;55.70;;;;;;4992007;28;20324;-47
2021/04/22 13:11:33;;;;;;;;;;;25.50;55.40;;;;;;4992207;28;20314;-47
2021/04/22 13:14:03;;;;;;;;;;;25.30;53.80;;;;;;4991693;28;20421;-48
2021/04/22 13:16:42;;;;;;;;;;;25.20;54.20;;;;;;5047899;28;19904;-47